createdAt,value
2022-08-17T00:00:02.086Z,21.60
2022-08-17T00:02:29.205Z,21.60
2022-08-17T00:04:58.357Z,21.60
2022-08-17T00:07:25.575Z,21.60
2022-08-17T00:09:52.709Z,21.60
2022-08-17T00:12:40.911Z,21.60
2022-08-17T00:15:10.726Z,21.60
2022-08-17T00:17:38.513Z,21.60
2022-08-17T00:20:06.135Z,21.60
2022-08-17T00:22:36.558Z,21.60
2022-08-17T00:25:12.078Z,21.50
2022-08-17T00:27:39.332Z,21.40
2022-08-17T00:30:08.235Z,21.40
2022-08-17T00:33:11.806Z,21.40
2022-08-17T00:35:34.417Z,21.40
2022-08-17T00:38:01.601Z,21.20
2022-08-17T00:40:40.660Z,21.10
2022-08-17T00:43:36.484Z,21.20
2022-08-17T00:46:34.840Z,21.20
2022-08-17T00:49:02.260Z,21.20
2022-08-17T00:51:38.664Z,21.10
2022-08-17T00:54:20.939Z,21.10
2022-08-17T00:57:00.650Z,21.20
2022-08-17T00:59:32.467Z,21.10
2022-08-17T01:01:59.808Z,21.00
2022-08-17T01:04:29.666Z,21.00
2022-08-17T01:06:57.596Z,21.10
2022-08-17T01:09:24.627Z,21.00
2022-08-17T01:11:52.479Z,21.00
2022-08-17T01:14:22.322Z,21.00
2022-08-17T01:16:51.712Z,21.00
2022-08-17T01:19:23.453Z,21.00
2022-08-17T01:21:52.316Z,21.00
2022-08-17T01:24:19.161Z,21.00
2022-08-17T01:26:46.721Z,21.00
2022-08-17T01:29:14.058Z,21.00
2022-08-17T01:31:47.721Z,21.00
2022-08-17T01:34:17.921Z,21.00
2022-08-17T01:36:47.619Z,21.00
2022-08-17T01:39:24.841Z,20.90
2022-08-17T01:41:57.631Z,20.80
2022-08-17T01:44:27.103Z,20.80
2022-08-17T01:46:54.933Z,20.90
2022-08-17T01:49:23.381Z,20.80
2022-08-17T01:51:50.253Z,20.80
2022-08-17T01:54:19.381Z,20.80
2022-08-17T01:56:49.867Z,20.80
2022-08-17T01:59:18.884Z,20.80
2022-08-17T02:01:46.977Z,20.60
2022-08-17T02:04:14.746Z,20.60
2022-08-17T02:06:53.573Z,20.70
2022-08-17T02:09:25.459Z,20.70
2022-08-17T02:11:54.714Z,20.70
2022-08-17T02:14:23.416Z,20.60
2022-08-17T02:16:50.710Z,20.60
2022-08-17T02:19:17.558Z,20.70
2022-08-17T02:21:46.968Z,20.70
2022-08-17T02:25:00.551Z,20.70
2022-08-17T02:27:06.267Z,20.60
2022-08-17T02:29:33.025Z,20.60
2022-08-17T02:32:02.426Z,20.60
2022-08-17T02:34:30.073Z,20.50
2022-08-17T02:36:56.845Z,20.40
2022-08-17T02:39:24.177Z,20.40
2022-08-17T02:41:59.869Z,20.40
2022-08-17T02:44:39.150Z,20.40
2022-08-17T02:47:08.520Z,20.40
2022-08-17T02:49:36.023Z,20.30
2022-08-17T02:52:06.279Z,20.20
2022-08-17T02:54:41.599Z,20.20
2022-08-17T02:57:10.041Z,20.20
2022-08-17T02:59:41.626Z,20.20
2022-08-17T03:02:12.242Z,20.20
2022-08-17T03:04:39.435Z,20.20
2022-08-17T03:07:06.741Z,20.20
2022-08-17T03:09:33.840Z,20.20
2022-08-17T03:12:09.536Z,20.10
2022-08-17T03:14:41.973Z,20.00
2022-08-17T03:17:10.656Z,19.90
2022-08-17T03:19:37.576Z,19.90
2022-08-17T03:22:35.962Z,20.00
2022-08-17T03:24:57.399Z,20.00
2022-08-17T03:27:24.543Z,20.10
2022-08-17T03:29:51.314Z,20.10
2022-08-17T03:32:21.021Z,20.10
2022-08-17T03:34:48.136Z,20.10
2022-08-17T03:37:15.663Z,20.10
2022-08-17T03:39:42.998Z,20.10
2022-08-17T03:42:31.552Z,20.10
2022-08-17T03:44:59.794Z,20.00
2022-08-17T03:47:45.583Z,20.10
2022-08-17T03:50:32.602Z,20.10
2022-08-17T03:53:18.618Z,20.10
2022-08-17T03:56:04.223Z,20.00
2022-08-17T03:58:31.389Z,20.10
2022-08-17T04:00:58.233Z,20.10
2022-08-17T04:03:25.361Z,20.10
2022-08-17T04:05:52.219Z,20.20
2022-08-17T04:08:19.499Z,20.20
2022-08-17T04:10:46.530Z,20.30
2022-08-17T04:13:14.471Z,20.30
2022-08-17T04:15:41.362Z,20.20
2022-08-17T04:18:10.948Z,20.40
2022-08-17T04:20:37.929Z,20.40
2022-08-17T04:23:11.772Z,20.40
2022-08-17T04:25:45.018Z,20.50
2022-08-17T04:28:15.641Z,20.70
2022-08-17T04:30:45.335Z,20.70
2022-08-17T04:33:17.552Z,20.80
2022-08-17T04:35:49.354Z,20.90
2022-08-17T04:38:22.367Z,21.00
2022-08-17T04:41:08.654Z,21.00
2022-08-17T04:43:36.464Z,21.10
2022-08-17T04:46:11.642Z,21.20
2022-08-17T04:48:43.051Z,21.40
2022-08-17T04:51:24.807Z,21.40
2022-08-17T04:53:55.192Z,21.60
2022-08-17T04:56:24.552Z,21.80
2022-08-17T04:58:53.493Z,21.90
2022-08-17T05:01:23.351Z,21.90
2022-08-17T05:03:52.128Z,22.10
2022-08-17T05:06:19.072Z,22.40
2022-08-17T05:08:46.177Z,22.60
2022-08-17T05:11:12.957Z,22.50
2022-08-17T05:13:40.142Z,22.40
2022-08-17T05:16:07.285Z,22.40
2022-08-17T05:18:34.157Z,22.50
2022-08-17T05:21:02.502Z,22.60
2022-08-17T05:23:35.004Z,22.60
2022-08-17T05:26:11.642Z,22.80
2022-08-17T05:28:52.749Z,23.00
2022-08-17T05:31:21.135Z,23.00
2022-08-17T05:33:49.548Z,23.10
2022-08-17T05:36:43.691Z,23.20
2022-08-17T05:39:04.451Z,23.30
2022-08-17T05:41:31.193Z,23.40
2022-08-17T05:43:58.421Z,23.50
2022-08-17T05:46:28.868Z,23.60
2022-08-17T05:49:17.289Z,23.70
2022-08-17T05:52:08.647Z,23.70
2022-08-17T05:55:10.573Z,24.10
2022-08-17T05:57:43.578Z,24.20
2022-08-17T06:00:42.152Z,24.40
2022-08-17T06:03:47.890Z,24.80
2022-08-17T06:06:31.217Z,25.00
2022-08-17T06:09:13.210Z,25.10
2022-08-17T06:12:06.605Z,25.20
2022-08-17T06:15:02.629Z,25.40
2022-08-17T06:17:30.301Z,25.60
2022-08-17T06:20:05.931Z,25.80
2022-08-17T06:22:41.504Z,25.90
2022-08-17T06:25:26.287Z,26.00
2022-08-17T06:28:04.829Z,26.10
2022-08-17T06:30:59.294Z,26.30
2022-08-17T06:33:37.095Z,26.60
2022-08-17T06:36:19.397Z,26.90
2022-08-17T06:39:03.373Z,27.10
2022-08-17T06:41:49.943Z,27.40
2022-08-17T06:44:49.754Z,27.90
2022-08-17T06:47:29.448Z,28.30
2022-08-17T06:50:05.992Z,28.80
2022-08-17T06:52:46.860Z,29.40
2022-08-17T06:55:46.813Z,30.30
2022-08-17T06:58:16.303Z,31.60
2022-08-17T07:00:47.654Z,32.20
2022-08-17T07:03:29.285Z,33.10
2022-08-17T07:06:05.909Z,33.60
2022-08-17T07:08:48.059Z,34.90
2022-08-17T07:11:19.389Z,34.60
2022-08-17T07:14:27.503Z,36.60
2022-08-17T07:16:56.576Z,37.90
2022-08-17T07:19:26.981Z,37.90
2022-08-17T07:22:01.318Z,37.50
2022-08-17T07:24:30.920Z,38.30
2022-08-17T07:27:42.363Z,38.50
2022-08-17T07:30:23.047Z,40.00
2022-08-17T07:33:08.672Z,42.00
2022-08-17T07:35:44.781Z,42.10
2022-08-17T07:38:25.282Z,41.70
2022-08-17T07:41:03.264Z,41.40
2022-08-17T07:43:39.565Z,42.20
2022-08-17T07:46:48.158Z,43.40
2022-08-17T07:49:14.851Z,43.30
2022-08-17T07:51:46.100Z,44.10
2022-08-17T07:54:15.665Z,45.60
2022-08-17T07:56:47.978Z,46.10
2022-08-17T07:59:16.824Z,46.00
2022-08-17T08:01:58.852Z,45.00
2022-08-17T08:07:35.070Z,45.70
2022-08-17T08:10:15.629Z,45.30
2022-08-17T08:12:53.733Z,42.90
2022-08-17T08:15:33.495Z,42.70
2022-08-17T08:18:04.030Z,43.70
2022-08-17T08:20:52.970Z,45.20
2022-08-17T08:23:44.552Z,45.00
2022-08-17T08:26:20.500Z,47.00
2022-08-17T08:29:08.806Z,46.90
2022-08-17T08:32:01.378Z,45.20
2022-08-17T08:35:02.455Z,44.00
2022-08-17T08:37:43.693Z,43.40
2022-08-17T08:40:40.188Z,43.40
2022-08-17T08:43:37.899Z,43.60
2022-08-17T08:46:35.558Z,43.90
2022-08-17T08:50:02.528Z,45.20
2022-08-17T08:52:55.199Z,47.00
2022-08-17T08:55:45.534Z,48.20
2022-08-17T08:58:31.314Z,48.10
2022-08-17T09:01:35.397Z,48.50
2022-08-17T09:04:25.538Z,49.10
2022-08-17T09:07:07.605Z,49.40
2022-08-17T09:09:46.702Z,48.70
2022-08-17T09:12:35.370Z,47.50
2022-08-17T09:15:13.668Z,46.40
2022-08-17T09:18:14.723Z,45.90
2022-08-17T09:20:52.016Z,45.60
2022-08-17T09:23:39.268Z,45.80
2022-08-17T09:26:25.507Z,45.90
2022-08-17T09:29:00.301Z,45.10
2022-08-17T09:31:48.710Z,44.40
2022-08-17T09:34:22.148Z,43.10
2022-08-17T09:37:23.232Z,41.20
2022-08-17T09:40:13.870Z,37.00
2022-08-17T09:43:19.027Z,35.00
2022-08-17T09:45:51.998Z,33.60
2022-08-17T09:48:25.420Z,33.00
2022-08-17T09:51:07.705Z,32.80
2022-08-17T09:53:39.092Z,33.10
2022-08-17T09:56:05.929Z,33.30
2022-08-17T09:58:35.394Z,33.50
2022-08-17T10:01:25.593Z,33.50
2022-08-17T10:04:33.210Z,33.20
2022-08-17T10:07:16.716Z,32.90
2022-08-17T10:10:03.730Z,32.70
2022-08-17T10:12:54.198Z,32.70
2022-08-17T10:15:48.818Z,32.70
2022-08-17T10:18:50.700Z,32.80
2022-08-17T10:21:37.808Z,32.90
2022-08-17T10:24:39.581Z,33.00
2022-08-17T10:27:52.995Z,32.90
2022-08-17T10:30:23.641Z,32.70
2022-08-17T10:33:01.383Z,32.80
2022-08-17T10:35:52.779Z,32.90
2022-08-17T10:38:57.209Z,32.90
2022-08-17T10:41:26.776Z,32.70
2022-08-17T10:44:37.131Z,32.80
2022-08-17T10:47:15.697Z,32.50
2022-08-17T10:49:49.872Z,32.40
2022-08-17T10:52:20.111Z,32.30
2022-08-17T10:54:47.961Z,32.50
2022-08-17T10:57:26.949Z,32.90
2022-08-17T11:00:03.419Z,33.00
2022-08-17T11:02:45.788Z,33.00
2022-08-17T11:05:43.999Z,33.00
2022-08-17T11:08:51.274Z,32.50
2022-08-17T11:11:47.956Z,32.10
2022-08-17T11:14:41.288Z,32.00
2022-08-17T11:17:30.484Z,31.70
2022-08-17T11:20:35.166Z,31.20
2022-08-17T11:23:32.186Z,31.00
2022-08-17T11:26:08.211Z,31.00
2022-08-17T11:28:50.354Z,31.20
2022-08-17T11:31:38.695Z,31.40
2022-08-17T11:34:26.930Z,31.80
2022-08-17T11:37:03.769Z,31.60
2022-08-17T11:39:38.761Z,31.70
2022-08-17T11:42:12.173Z,31.80
2022-08-17T11:44:58.591Z,31.80
2022-08-17T11:48:31.525Z,32.00
2022-08-17T11:51:35.104Z,32.40
2022-08-17T11:54:36.197Z,32.70
2022-08-17T11:57:29.897Z,32.60
2022-08-17T12:00:12.835Z,32.70
2022-08-17T12:02:50.572Z,32.80
2022-08-17T12:05:17.319Z,32.80
2022-08-17T12:07:53.230Z,32.90
2022-08-17T12:10:31.703Z,32.80
2022-08-17T12:13:10.343Z,32.40
2022-08-17T12:15:50.452Z,32.20
2022-08-17T12:18:28.087Z,32.10
2022-08-17T12:21:13.754Z,32.10
2022-08-17T12:23:50.297Z,32.20
2022-08-17T12:26:20.671Z,32.20
2022-08-17T12:28:52.087Z,32.10
2022-08-17T12:31:29.474Z,31.90
2022-08-17T12:33:57.055Z,31.80
2022-08-17T12:36:25.987Z,31.90
2022-08-17T12:39:13.705Z,32.20
2022-08-17T12:41:44.619Z,32.20
2022-08-17T12:44:12.712Z,32.30
2022-08-17T12:46:48.322Z,32.30
2022-08-17T12:49:35.643Z,32.30
2022-08-17T12:52:25.070Z,32.30
2022-08-17T12:55:07.003Z,32.50
2022-08-17T12:57:41.996Z,32.80
2022-08-17T13:00:12.613Z,32.60
2022-08-17T13:02:47.133Z,32.60
2022-08-17T13:05:25.043Z,32.60
2022-08-17T13:07:53.441Z,32.60
2022-08-17T13:10:33.029Z,32.40
2022-08-17T13:13:05.251Z,32.40
2022-08-17T13:15:44.940Z,32.60
2022-08-17T13:18:39.006Z,32.30
2022-08-17T13:21:23.757Z,32.30
2022-08-17T13:24:11.119Z,32.30
2022-08-17T13:26:42.364Z,32.00
2022-08-17T13:29:34.912Z,31.90
2022-08-17T13:32:05.370Z,31.30
2022-08-17T13:35:11.747Z,31.10
2022-08-17T13:37:37.290Z,30.90
2022-08-17T13:40:10.012Z,30.70
2022-08-17T13:42:51.431Z,30.70
2022-08-17T13:45:32.210Z,30.90
2022-08-17T13:48:08.883Z,31.10
2022-08-17T13:50:47.501Z,30.90
2022-08-17T13:53:27.673Z,31.00
2022-08-17T13:56:01.485Z,30.90
2022-08-17T13:58:32.839Z,30.80
2022-08-17T14:01:32.813Z,30.80
2022-08-17T14:04:02.207Z,31.00
2022-08-17T14:06:52.062Z,31.10
2022-08-17T14:09:24.346Z,31.20
2022-08-17T14:11:52.851Z,31.20
2022-08-17T14:14:20.174Z,31.30
2022-08-17T14:16:47.687Z,31.30
2022-08-17T14:19:14.809Z,31.30
2022-08-17T14:21:46.641Z,31.50
2022-08-17T14:24:27.652Z,31.50
2022-08-17T14:26:55.217Z,31.50
2022-08-17T14:29:33.821Z,31.50
2022-08-17T14:32:09.193Z,31.50
2022-08-17T14:34:36.538Z,31.50
2022-08-17T14:37:03.358Z,31.50
2022-08-17T14:39:30.152Z,31.50
2022-08-17T14:41:58.361Z,31.50
2022-08-17T14:44:25.155Z,31.40
2022-08-17T14:46:52.152Z,31.60
2022-08-17T14:49:20.704Z,31.60
2022-08-17T14:51:47.572Z,31.60
2022-08-17T14:54:32.850Z,31.60
2022-08-17T14:57:04.657Z,31.60
2022-08-17T14:59:52.291Z,31.70
2022-08-17T15:02:30.128Z,32.00
2022-08-17T15:05:03.886Z,32.00
2022-08-17T15:07:31.785Z,32.20
2022-08-17T15:10:03.316Z,32.10
2022-08-17T15:12:33.631Z,31.50
2022-08-17T15:15:04.804Z,31.40
2022-08-17T15:17:44.446Z,31.50
2022-08-17T15:20:19.490Z,31.30
2022-08-17T15:22:50.123Z,31.30
2022-08-17T15:25:19.088Z,31.30
2022-08-17T15:27:46.366Z,31.30
2022-08-17T15:30:17.976Z,31.30
2022-08-17T15:32:46.892Z,31.30
2022-08-17T15:35:27.349Z,31.30
2022-08-17T15:38:11.161Z,31.30
2022-08-17T15:40:46.812Z,31.20
2022-08-17T15:43:27.572Z,31.10
2022-08-17T15:46:07.890Z,31.10
2022-08-17T15:48:42.208Z,31.00
2022-08-17T15:51:20.249Z,31.00
2022-08-17T15:53:50.290Z,31.00
2022-08-17T15:56:17.876Z,31.10
2022-08-17T15:58:46.858Z,30.90
2022-08-17T16:01:27.865Z,31.00
2022-08-17T16:04:21.222Z,31.00
2022-08-17T16:06:53.421Z,31.10
2022-08-17T16:09:20.599Z,31.30
2022-08-17T16:11:52.083Z,31.30
2022-08-17T16:14:24.023Z,31.30
2022-08-17T16:16:52.372Z,31.50
2022-08-17T16:19:19.245Z,31.50
2022-08-17T16:21:48.701Z,31.50
2022-08-17T16:25:11.525Z,31.70
2022-08-17T16:27:38.371Z,31.50
2022-08-17T16:30:07.193Z,31.40
2022-08-17T16:32:34.017Z,31.50
2022-08-17T16:35:07.355Z,31.50
2022-08-17T16:37:34.966Z,31.30
2022-08-17T16:40:02.092Z,31.40
2022-08-17T16:42:33.050Z,31.20
2022-08-17T16:45:24.382Z,31.20
2022-08-17T16:47:51.289Z,31.00
2022-08-17T16:50:20.543Z,31.00
2022-08-17T16:52:49.528Z,31.10
2022-08-17T16:55:28.773Z,30.90
2022-08-17T16:57:56.820Z,30.90
2022-08-17T17:00:23.575Z,30.70
2022-08-17T17:02:50.902Z,30.80
2022-08-17T17:05:42.860Z,30.90
2022-08-17T17:08:20.585Z,31.00
2022-08-17T17:10:50.050Z,31.20
2022-08-17T17:13:35.066Z,31.30
2022-08-17T17:16:21.931Z,31.30
2022-08-17T17:19:11.068Z,31.20
2022-08-17T17:21:46.864Z,31.10
2022-08-17T17:24:23.925Z,31.10
2022-08-17T17:27:07.514Z,30.90
2022-08-17T17:29:53.247Z,30.90
2022-08-17T17:32:32.445Z,30.70
2022-08-17T17:35:16.478Z,30.70
2022-08-17T17:37:45.380Z,30.60
2022-08-17T17:40:23.293Z,30.40
2022-08-17T17:42:55.594Z,30.30
2022-08-17T17:45:56.801Z,30.20
2022-08-17T17:48:24.188Z,30.00
2022-08-17T17:51:05.821Z,29.90
2022-08-17T17:53:58.891Z,29.80
2022-08-17T17:56:43.169Z,29.70
2022-08-17T17:59:24.462Z,29.70
2022-08-17T18:02:41.692Z,29.50
2022-08-17T18:05:46.636Z,29.30
2022-08-17T18:08:32.297Z,29.10
2022-08-17T18:11:24.427Z,29.00
2022-08-17T18:14:03.659Z,28.70
2022-08-17T18:16:34.450Z,28.60
2022-08-17T18:19:01.582Z,28.50
2022-08-17T18:21:49.239Z,28.40
2022-08-17T18:24:29.379Z,28.30
2022-08-17T18:26:59.604Z,28.10
2022-08-17T18:29:34.411Z,28.00
2022-08-17T18:32:25.580Z,28.00
2022-08-17T18:35:14.735Z,27.90
2022-08-17T18:37:54.596Z,27.90
2022-08-17T18:40:27.134Z,27.80
2022-08-17T18:43:05.545Z,27.70
2022-08-17T18:45:58.086Z,27.60
2022-08-17T18:48:32.885Z,27.40
2022-08-17T18:51:20.415Z,27.30
2022-08-17T18:54:07.171Z,27.20
2022-08-17T18:56:36.258Z,27.20
2022-08-17T18:59:12.766Z,27.20
2022-08-17T19:01:57.092Z,26.90
2022-08-17T19:04:57.500Z,26.80
2022-08-17T19:07:29.281Z,27.00
2022-08-17T19:10:26.934Z,27.10
2022-08-17T19:13:13.793Z,27.00
2022-08-17T19:16:15.330Z,27.00
2022-08-17T19:19:08.048Z,27.10
2022-08-17T19:21:40.544Z,27.10
2022-08-17T19:24:19.619Z,26.90
2022-08-17T19:27:18.446Z,26.60
2022-08-17T19:29:56.933Z,26.70
2022-08-17T19:37:54.261Z,26.90
2022-08-17T19:40:51.585Z,26.80
2022-08-17T19:44:08.839Z,27.00
2022-08-17T19:47:36.282Z,27.10
2022-08-17T19:50:29.576Z,27.10
2022-08-17T19:56:08.661Z,26.90
2022-08-17T19:59:03.445Z,27.00
2022-08-17T20:01:54.675Z,26.90
2022-08-17T20:04:33.393Z,27.10
2022-08-17T20:07:06.249Z,26.90
2022-08-17T20:09:45.118Z,26.80
2022-08-17T20:12:18.578Z,26.80
2022-08-17T20:15:00.269Z,26.80
2022-08-17T20:17:34.463Z,26.80
2022-08-17T20:20:24.047Z,26.70
2022-08-17T20:23:05.635Z,26.60
2022-08-17T20:25:46.897Z,26.40
2022-08-17T20:28:28.818Z,26.30
2022-08-17T20:30:56.547Z,26.30
2022-08-17T20:33:26.069Z,26.30
2022-08-17T20:36:11.973Z,26.30
2022-08-17T20:38:49.305Z,26.30
2022-08-17T20:41:22.433Z,26.20
2022-08-17T20:44:04.174Z,26.20
2022-08-17T20:46:56.992Z,26.20
2022-08-17T20:49:45.001Z,26.00
2022-08-17T20:52:16.833Z,26.10
2022-08-17T20:54:51.095Z,25.90
2022-08-17T20:57:33.413Z,25.90
2022-08-17T21:00:18.222Z,25.80
2022-08-17T21:02:50.014Z,25.70
2022-08-17T21:05:35.311Z,25.80
2022-08-17T21:08:15.631Z,25.80
2022-08-17T21:10:46.463Z,25.90
2022-08-17T21:13:16.273Z,25.70
2022-08-17T21:16:12.287Z,25.70
2022-08-17T21:18:57.855Z,25.70
2022-08-17T21:21:41.660Z,25.60
2022-08-17T21:24:19.902Z,25.40
2022-08-17T21:27:26.185Z,25.40
2022-08-17T21:30:21.136Z,25.30
2022-08-17T21:33:20.174Z,25.40
2022-08-17T21:35:51.438Z,25.40
2022-08-17T21:38:22.046Z,25.30
2022-08-17T21:40:53.906Z,25.30
2022-08-17T21:43:32.436Z,25.20
2022-08-17T21:46:11.199Z,25.20
2022-08-17T21:48:45.768Z,25.10
2022-08-17T21:51:26.073Z,25.20
2022-08-17T21:53:57.887Z,25.20
2022-08-17T21:56:34.277Z,25.20
2022-08-17T21:59:05.403Z,25.00
2022-08-17T22:01:39.758Z,25.00
2022-08-17T22:04:24.319Z,25.00
2022-08-17T22:06:57.569Z,24.90
2022-08-17T22:09:34.245Z,24.90
2022-08-17T22:12:06.659Z,24.80
2022-08-17T22:14:53.272Z,24.80
2022-08-17T22:17:30.507Z,25.00
2022-08-17T22:20:18.033Z,25.10
2022-08-17T22:23:06.880Z,25.00
2022-08-17T22:25:39.569Z,24.90
2022-08-17T22:28:09.141Z,24.90
2022-08-17T22:31:02.242Z,24.90
2022-08-17T22:33:47.182Z,24.80
2022-08-17T22:36:25.125Z,25.00
2022-08-17T22:39:02.401Z,25.00
2022-08-17T22:41:37.827Z,25.10
2022-08-17T22:44:18.004Z,25.00
2022-08-17T22:47:01.860Z,24.90
2022-08-17T22:49:54.046Z,25.00
2022-08-17T22:52:32.399Z,24.80
2022-08-17T22:55:32.079Z,24.80
2022-08-17T22:58:18.585Z,24.80
2022-08-17T23:00:49.027Z,24.80
2022-08-17T23:03:26.928Z,24.70
2022-08-17T23:06:04.049Z,24.60
2022-08-17T23:08:33.903Z,24.70
2022-08-17T23:11:01.178Z,24.60
2022-08-17T23:13:28.919Z,24.60
2022-08-17T23:15:55.726Z,24.50
2022-08-17T23:18:23.985Z,24.50
2022-08-17T23:20:50.912Z,24.50
2022-08-17T23:23:23.369Z,24.50
2022-08-17T23:25:50.494Z,24.40
2022-08-17T23:28:17.634Z,24.40
2022-08-17T23:30:46.898Z,24.40
2022-08-17T23:33:26.006Z,24.40
2022-08-17T23:35:53.905Z,24.30
2022-08-17T23:38:21.100Z,24.20
2022-08-17T23:40:48.213Z,24.20
2022-08-17T23:43:23.377Z,24.10
2022-08-17T23:45:57.582Z,23.90
2022-08-17T23:48:33.017Z,23.80
2022-08-17T23:51:05.938Z,23.60
2022-08-17T23:53:36.314Z,23.50
2022-08-17T23:56:10.233Z,23.50
2022-08-17T23:58:39.282Z,23.30
